sensor_id;sensor_type;location;lat;lon;timestamp;P1;durP1;ratioP1;P2;durP2;ratioP2
54452;SDS011;40363;52.270;10.546;2022-10-16T00:01:45;1.40;;;1.20;;
54452;SDS011;40363;52.270;10.546;2022-10-16T00:04:13;2.08;;;1.00;;
54452;SDS011;40363;52.270;10.546;2022-10-16T00:06:39;1.70;;;1.20;;
54452;SDS011;40363;52.270;10.546;2022-10-16T00:09:08;2.00;;;1.30;;
54452;SDS011;40363;52.270;10.546;2022-10-16T00:11:35;1.73;;;1.33;;
54452;SDS011;40363;52.270;10.546;2022-10-16T00:14:04;2.90;;;1.58;;
54452;SDS011;40363;52.270;10.546;2022-10-16T00:16:33;3.60;;;1.05;;
54452;SDS011;40363;52.270;10.546;2022-10-16T00:19:02;1.30;;;1.10;;
54452;SDS011;40363;52.270;10.546;2022-10-16T00:21:30;2.35;;;1.35;;
54452;SDS011;40363;52.270;10.546;2022-10-16T00:23:58;2.40;;;1.15;;
54452;SDS011;40363;52.270;10.546;2022-10-16T00:26:28;1.17;;;1.00;;
54452;SDS011;40363;52.270;10.546;2022-10-16T00:28:56;2.50;;;1.55;;
54452;SDS011;40363;52.270;10.546;2022-10-16T00:31:23;3.10;;;1.38;;
54452;SDS011;40363;52.270;10.546;2022-10-16T00:33:50;1.42;;;1.00;;
54452;SDS011;40363;52.270;10.546;2022-10-16T00:36:18;1.80;;;1.05;;
54452;SDS011;40363;52.270;10.546;2022-10-16T00:38:46;1.52;;;1.08;;
54452;SDS011;40363;52.270;10.546;2022-10-16T00:41:14;3.92;;;1.45;;
54452;SDS011;40363;52.270;10.546;2022-10-16T00:43:43;3.63;;;1.30;;
54452;SDS011;40363;52.270;10.546;2022-10-16T00:46:15;2.80;;;2.03;;
54452;SDS011;40363;52.270;10.546;2022-10-16T00:48:45;3.40;;;1.40;;
54452;SDS011;40363;52.270;10.546;2022-10-16T00:51:15;3.58;;;1.45;;
54452;SDS011;40363;52.270;10.546;2022-10-16T00:53:45;2.63;;;1.23;;
54452;SDS011;40363;52.270;10.546;2022-10-16T00:56:12;1.92;;;1.30;;
54452;SDS011;40363;52.270;10.546;2022-10-16T00:58:39;4.55;;;1.42;;
54452;SDS011;40363;52.270;10.546;2022-10-16T01:01:07;3.47;;;1.88;;
54452;SDS011;40363;52.270;10.546;2022-10-16T01:03:35;2.15;;;1.30;;
54452;SDS011;40363;52.270;10.546;2022-10-16T01:06:06;3.13;;;1.50;;
54452;SDS011;40363;52.270;10.546;2022-10-16T01:08:43;4.65;;;1.63;;
54452;SDS011;40363;52.270;10.546;2022-10-16T01:11:17;1.75;;;1.45;;
54452;SDS011;40363;52.270;10.546;2022-10-16T01:13:50;1.50;;;1.08;;
54452;SDS011;40363;52.270;10.546;2022-10-16T01:16:24;2.05;;;1.52;;
54452;SDS011;40363;52.270;10.546;2022-10-16T01:19:00;1.55;;;1.40;;
54452;SDS011;40363;52.270;10.546;2022-10-16T01:21:34;1.85;;;1.20;;
54452;SDS011;40363;52.270;10.546;2022-10-16T01:24:06;1.40;;;1.27;;
54452;SDS011;40363;52.270;10.546;2022-10-16T01:26:42;3.03;;;1.75;;
54452;SDS011;40363;52.270;10.546;2022-10-16T01:29:22;1.75;;;1.25;;
54452;SDS011;40363;52.270;10.546;2022-10-16T01:31:56;1.60;;;1.33;;
54452;SDS011;40363;52.270;10.546;2022-10-16T01:34:28;4.00;;;1.48;;
54452;SDS011;40363;52.270;10.546;2022-10-16T01:37:00;1.60;;;1.30;;
54452;SDS011;40363;52.270;10.546;2022-10-16T01:39:32;1.75;;;1.23;;
54452;SDS011;40363;52.270;10.546;2022-10-16T01:42:03;2.70;;;1.30;;
54452;SDS011;40363;52.270;10.546;2022-10-16T01:44:36;2.35;;;1.35;;
54452;SDS011;40363;52.270;10.546;2022-10-16T01:47:05;2.20;;;1.50;;
54452;SDS011;40363;52.270;10.546;2022-10-16T01:49:35;2.58;;;1.60;;
54452;SDS011;40363;52.270;10.546;2022-10-16T01:52:05;3.50;;;1.50;;
54452;SDS011;40363;52.270;10.546;2022-10-16T01:54:35;3.30;;;1.77;;
54452;SDS011;40363;52.270;10.546;2022-10-16T01:57:06;2.72;;;1.65;;
54452;SDS011;40363;52.270;10.546;2022-10-16T01:59:35;1.85;;;1.30;;
54452;SDS011;40363;52.270;10.546;2022-10-16T02:02:08;2.50;;;1.58;;
54452;SDS011;40363;52.270;10.546;2022-10-16T02:04:37;2.22;;;1.17;;
54452;SDS011;40363;52.270;10.546;2022-10-16T02:07:08;2.33;;;1.40;;
54452;SDS011;40363;52.270;10.546;2022-10-16T02:09:36;2.28;;;1.60;;
54452;SDS011;40363;52.270;10.546;2022-10-16T02:12:03;3.65;;;1.48;;
54452;SDS011;40363;52.270;10.546;2022-10-16T02:14:34;2.90;;;1.75;;
54452;SDS011;40363;52.270;10.546;2022-10-16T02:17:09;3.85;;;1.58;;
54452;SDS011;40363;52.270;10.546;2022-10-16T02:19:37;2.97;;;1.45;;
54452;SDS011;40363;52.270;10.546;2022-10-16T02:22:04;1.83;;;1.15;;
54452;SDS011;40363;52.270;10.546;2022-10-16T02:24:36;5.38;;;1.75;;
54452;SDS011;40363;52.270;10.546;2022-10-16T02:27:06;2.67;;;1.58;;
54452;SDS011;40363;52.270;10.546;2022-10-16T02:29:39;2.45;;;1.45;;
54452;SDS011;40363;52.270;10.546;2022-10-16T02:32:10;2.92;;;1.70;;
54452;SDS011;40363;52.270;10.546;2022-10-16T02:34:40;2.95;;;1.70;;
54452;SDS011;40363;52.270;10.546;2022-10-16T02:37:08;2.83;;;1.50;;
54452;SDS011;40363;52.270;10.546;2022-10-16T02:39:35;2.33;;;1.45;;
54452;SDS011;40363;52.270;10.546;2022-10-16T02:42:03;3.85;;;1.70;;
54452;SDS011;40363;52.270;10.546;2022-10-16T02:44:29;3.47;;;1.50;;
54452;SDS011;40363;52.270;10.546;2022-10-16T02:46:57;2.13;;;1.33;;
54452;SDS011;40363;52.270;10.546;2022-10-16T02:49:24;2.90;;;1.92;;
54452;SDS011;40363;52.270;10.546;2022-10-16T02:51:50;2.47;;;1.75;;
54452;SDS011;40363;52.270;10.546;2022-10-16T02:54:17;2.85;;;1.52;;
54452;SDS011;40363;52.270;10.546;2022-10-16T02:56:44;3.97;;;1.63;;
54452;SDS011;40363;52.270;10.546;2022-10-16T02:59:10;3.75;;;1.80;;
54452;SDS011;40363;52.270;10.546;2022-10-16T03:01:37;2.78;;;1.90;;
54452;SDS011;40363;52.270;10.546;2022-10-16T03:04:05;5.32;;;1.98;;
54452;SDS011;40363;52.270;10.546;2022-10-16T03:06:32;4.35;;;2.13;;
54452;SDS011;40363;52.270;10.546;2022-10-16T03:08:58;4.35;;;1.63;;
54452;SDS011;40363;52.270;10.546;2022-10-16T03:11:25;4.05;;;2.05;;
54452;SDS011;40363;52.270;10.546;2022-10-16T03:13:53;2.88;;;2.20;;
54452;SDS011;40363;52.270;10.546;2022-10-16T03:16:20;3.63;;;1.85;;
54452;SDS011;40363;52.270;10.546;2022-10-16T03:18:47;4.95;;;1.50;;
54452;SDS011;40363;52.270;10.546;2022-10-16T03:21:16;5.00;;;1.80;;
54452;SDS011;40363;52.270;10.546;2022-10-16T03:23:43;5.15;;;2.28;;
54452;SDS011;40363;52.270;10.546;2022-10-16T03:26:10;5.05;;;1.90;;
54452;SDS011;40363;52.270;10.546;2022-10-16T03:28:36;3.58;;;1.77;;
54452;SDS011;40363;52.270;10.546;2022-10-16T03:31:03;3.03;;;1.90;;
54452;SDS011;40363;52.270;10.546;2022-10-16T03:33:30;2.60;;;1.77;;
54452;SDS011;40363;52.270;10.546;2022-10-16T03:35:56;2.80;;;1.92;;
54452;SDS011;40363;52.270;10.546;2022-10-16T03:38:25;3.25;;;2.00;;
54452;SDS011;40363;52.270;10.546;2022-10-16T03:40:51;3.13;;;1.90;;
54452;SDS011;40363;52.270;10.546;2022-10-16T03:43:18;5.18;;;1.60;;
54452;SDS011;40363;52.270;10.546;2022-10-16T03:45:45;2.83;;;1.77;;
54452;SDS011;40363;52.270;10.546;2022-10-16T03:48:11;4.82;;;1.98;;
54452;SDS011;40363;52.270;10.546;2022-10-16T03:50:38;3.97;;;1.70;;
54452;SDS011;40363;52.270;10.546;2022-10-16T03:53:05;4.30;;;2.22;;
54452;SDS011;40363;52.270;10.546;2022-10-16T03:55:33;2.85;;;1.83;;
54452;SDS011;40363;52.270;10.546;2022-10-16T03:58:00;3.30;;;2.10;;
54452;SDS011;40363;52.270;10.546;2022-10-16T04:00:27;4.20;;;1.95;;
54452;SDS011;40363;52.270;10.546;2022-10-16T04:02:54;3.70;;;1.95;;
54452;SDS011;40363;52.270;10.546;2022-10-16T04:05:20;2.95;;;1.95;;
54452;SDS011;40363;52.270;10.546;2022-10-16T04:07:47;6.30;;;2.10;;
54452;SDS011;40363;52.270;10.546;2022-10-16T04:10:13;2.38;;;1.55;;
54452;SDS011;40363;52.270;10.546;2022-10-16T04:12:41;2.38;;;2.00;;
54452;SDS011;40363;52.270;10.546;2022-10-16T04:15:08;2.88;;;2.00;;
54452;SDS011;40363;52.270;10.546;2022-10-16T04:17:35;2.53;;;1.63;;
54452;SDS011;40363;52.270;10.546;2022-10-16T04:20:02;3.10;;;1.70;;
54452;SDS011;40363;52.270;10.546;2022-10-16T04:22:29;2.97;;;2.00;;
54452;SDS011;40363;52.270;10.546;2022-10-16T04:24:56;3.92;;;1.77;;
54452;SDS011;40363;52.270;10.546;2022-10-16T04:27:22;4.85;;;2.17;;
54452;SDS011;40363;52.270;10.546;2022-10-16T04:29:50;2.85;;;2.00;;
54452;SDS011;40363;52.270;10.546;2022-10-16T04:32:17;4.30;;;2.28;;
54452;SDS011;40363;52.270;10.546;2022-10-16T04:34:44;2.25;;;1.60;;
54452;SDS011;40363;52.270;10.546;2022-10-16T04:37:10;2.88;;;1.45;;
54452;SDS011;40363;52.270;10.546;2022-10-16T04:39:37;2.42;;;1.52;;
54452;SDS011;40363;52.270;10.546;2022-10-16T04:42:04;4.03;;;2.95;;
54452;SDS011;40363;52.270;10.546;2022-10-16T04:44:30;3.00;;;1.98;;
54452;SDS011;40363;52.270;10.546;2022-10-16T04:46:58;4.32;;;2.03;;
54452;SDS011;40363;52.270;10.546;2022-10-16T04:49:25;3.20;;;1.98;;
54452;SDS011;40363;52.270;10.546;2022-10-16T04:51:51;2.42;;;1.70;;
54452;SDS011;40363;52.270;10.546;2022-10-16T04:54:18;1.75;;;1.55;;
54452;SDS011;40363;52.270;10.546;2022-10-16T04:56:45;3.30;;;1.92;;
54452;SDS011;40363;52.270;10.546;2022-10-16T04:59:13;1.90;;;1.60;;
54452;SDS011;40363;52.270;10.546;2022-10-16T05:01:40;3.53;;;2.00;;
54452;SDS011;40363;52.270;10.546;2022-10-16T05:04:08;2.85;;;1.50;;
54452;SDS011;40363;52.270;10.546;2022-10-16T05:06:35;4.18;;;1.90;;
54452;SDS011;40363;52.270;10.546;2022-10-16T05:09:02;2.72;;;1.85;;
54452;SDS011;40363;52.270;10.546;2022-10-16T05:11:29;4.03;;;2.20;;
54452;SDS011;40363;52.270;10.546;2022-10-16T05:13:55;4.32;;;1.63;;
54452;SDS011;40363;52.270;10.546;2022-10-16T05:16:22;3.28;;;1.80;;
54452;SDS011;40363;52.270;10.546;2022-10-16T05:18:49;3.17;;;2.42;;
54452;SDS011;40363;52.270;10.546;2022-10-16T05:21:19;3.97;;;2.00;;
54452;SDS011;40363;52.270;10.546;2022-10-16T05:23:46;6.28;;;1.65;;
54452;SDS011;40363;52.270;10.546;2022-10-16T05:26:12;2.92;;;1.88;;
54452;SDS011;40363;52.270;10.546;2022-10-16T05:28:39;2.80;;;1.95;;
54452;SDS011;40363;52.270;10.546;2022-10-16T05:31:06;3.95;;;1.80;;
54452;SDS011;40363;52.270;10.546;2022-10-16T05:33:33;3.05;;;1.75;;
54452;SDS011;40363;52.270;10.546;2022-10-16T05:36:00;2.47;;;1.60;;
54452;SDS011;40363;52.270;10.546;2022-10-16T05:38:29;3.85;;;2.15;;
54452;SDS011;40363;52.270;10.546;2022-10-16T05:40:56;2.33;;;1.63;;
54452;SDS011;40363;52.270;10.546;2022-10-16T05:43:23;3.05;;;2.25;;
54452;SDS011;40363;52.270;10.546;2022-10-16T05:45:53;3.25;;;1.90;;
54452;SDS011;40363;52.270;10.546;2022-10-16T05:48:20;2.90;;;2.20;;
54452;SDS011;40363;52.270;10.546;2022-10-16T05:50:47;4.78;;;2.00;;
54452;SDS011;40363;52.270;10.546;2022-10-16T05:53:14;4.38;;;2.63;;
54452;SDS011;40363;52.270;10.546;2022-10-16T05:55:42;2.20;;;1.70;;
54452;SDS011;40363;52.270;10.546;2022-10-16T05:58:08;2.72;;;1.80;;
54452;SDS011;40363;52.270;10.546;2022-10-16T06:00:35;3.38;;;1.95;;
54452;SDS011;40363;52.270;10.546;2022-10-16T06:03:02;4.53;;;2.00;;
54452;SDS011;40363;52.270;10.546;2022-10-16T06:05:29;4.15;;;2.17;;
54452;SDS011;40363;52.270;10.546;2022-10-16T06:07:56;3.15;;;1.88;;
54452;SDS011;40363;52.270;10.546;2022-10-16T06:10:23;3.55;;;1.85;;
54452;SDS011;40363;52.270;10.546;2022-10-16T06:12:51;2.58;;;1.60;;
54452;SDS011;40363;52.270;10.546;2022-10-16T06:15:17;3.30;;;2.10;;
54452;SDS011;40363;52.270;10.546;2022-10-16T06:17:44;5.47;;;2.20;;
54452;SDS011;40363;52.270;10.546;2022-10-16T06:20:11;2.30;;;1.73;;
54452;SDS011;40363;52.270;10.546;2022-10-16T06:22:37;2.25;;;1.75;;
54452;SDS011;40363;52.270;10.546;2022-10-16T06:25:04;14.05;;;4.45;;
54452;SDS011;40363;52.270;10.546;2022-10-16T06:27:31;2.92;;;2.20;;
54452;SDS011;40363;52.270;10.546;2022-10-16T06:29:59;5.60;;;2.10;;
54452;SDS011;40363;52.270;10.546;2022-10-16T06:32:27;4.57;;;2.00;;
54452;SDS011;40363;52.270;10.546;2022-10-16T06:34:53;3.20;;;1.90;;
54452;SDS011;40363;52.270;10.546;2022-10-16T06:37:20;2.72;;;1.83;;
54452;SDS011;40363;52.270;10.546;2022-10-16T06:39:47;3.45;;;2.33;;
54452;SDS011;40363;52.270;10.546;2022-10-16T06:42:13;3.05;;;2.05;;
54452;SDS011;40363;52.270;10.546;2022-10-16T06:44:40;4.03;;;2.20;;
54452;SDS011;40363;52.270;10.546;2022-10-16T06:47:08;11.15;;;2.65;;
54452;SDS011;40363;52.270;10.546;2022-10-16T06:49:35;1.92;;;1.73;;
54452;SDS011;40363;52.270;10.546;2022-10-16T06:52:01;2.97;;;2.30;;
54452;SDS011;40363;52.270;10.546;2022-10-16T06:54:29;4.47;;;2.33;;
54452;SDS011;40363;52.270;10.546;2022-10-16T06:56:56;3.90;;;2.05;;
54452;SDS011;40363;52.270;10.546;2022-10-16T06:59:25;2.40;;;1.85;;
54452;SDS011;40363;52.270;10.546;2022-10-16T07:01:51;2.15;;;1.70;;
54452;SDS011;40363;52.270;10.546;2022-10-16T07:04:19;2.85;;;1.98;;
54452;SDS011;40363;52.270;10.546;2022-10-16T07:06:46;4.22;;;1.77;;
54452;SDS011;40363;52.270;10.546;2022-10-16T07:09:13;4.93;;;2.38;;
54452;SDS011;40363;52.270;10.546;2022-10-16T07:11:40;2.10;;;1.70;;
54452;SDS011;40363;52.270;10.546;2022-10-16T07:14:10;3.40;;;2.10;;
54452;SDS011;40363;52.270;10.546;2022-10-16T07:16:40;4.53;;;2.00;;
54452;SDS011;40363;52.270;10.546;2022-10-16T07:19:07;5.03;;;2.17;;
54452;SDS011;40363;52.270;10.546;2022-10-16T07:21:38;2.45;;;1.77;;
54452;SDS011;40363;52.270;10.546;2022-10-16T07:24:05;4.40;;;2.03;;
54452;SDS011;40363;52.270;10.546;2022-10-16T07:26:34;2.67;;;1.92;;
54452;SDS011;40363;52.270;10.546;2022-10-16T07:29:04;3.08;;;2.00;;
54452;SDS011;40363;52.270;10.546;2022-10-16T07:31:31;3.55;;;2.08;;
54452;SDS011;40363;52.270;10.546;2022-10-16T07:33:58;10.25;;;2.42;;
54452;SDS011;40363;52.270;10.546;2022-10-16T07:36:25;7.65;;;2.78;;
54452;SDS011;40363;52.270;10.546;2022-10-16T07:38:54;4.68;;;2.10;;
54452;SDS011;40363;52.270;10.546;2022-10-16T07:41:20;3.10;;;1.50;;
54452;SDS011;40363;52.270;10.546;2022-10-16T07:43:47;3.85;;;1.48;;
54452;SDS011;40363;52.270;10.546;2022-10-16T07:46:15;2.80;;;1.42;;
54452;SDS011;40363;52.270;10.546;2022-10-16T07:48:42;2.10;;;1.50;;
54452;SDS011;40363;52.270;10.546;2022-10-16T07:51:12;1.92;;;1.27;;
54452;SDS011;40363;52.270;10.546;2022-10-16T07:53:40;5.07;;;1.77;;
54452;SDS011;40363;52.270;10.546;2022-10-16T07:56:08;3.03;;;1.17;;
54452;SDS011;40363;52.270;10.546;2022-10-16T07:58:35;1.52;;;1.20;;
54452;SDS011;40363;52.270;10.546;2022-10-16T08:01:03;2.22;;;1.30;;
54452;SDS011;40363;52.270;10.546;2022-10-16T08:03:30;3.10;;;0.88;;
54452;SDS011;40363;52.270;10.546;2022-10-16T08:05:56;3.15;;;1.00;;
54452;SDS011;40363;52.270;10.546;2022-10-16T08:08:24;2.15;;;0.90;;
54452;SDS011;40363;52.270;10.546;2022-10-16T08:10:50;5.13;;;1.20;;
54452;SDS011;40363;52.270;10.546;2022-10-16T08:13:18;1.05;;;0.82;;
54452;SDS011;40363;52.270;10.546;2022-10-16T08:15:45;2.42;;;0.80;;
54452;SDS011;40363;52.270;10.546;2022-10-16T08:18:12;3.08;;;0.98;;
54452;SDS011;40363;52.270;10.546;2022-10-16T08:20:41;1.20;;;0.82;;
54452;SDS011;40363;52.270;10.546;2022-10-16T08:23:08;1.17;;;0.90;;
54452;SDS011;40363;52.270;10.546;2022-10-16T08:25:37;2.65;;;1.20;;
54452;SDS011;40363;52.270;10.546;2022-10-16T08:28:04;2.63;;;1.77;;
54452;SDS011;40363;52.270;10.546;2022-10-16T08:30:32;4.70;;;1.52;;
54452;SDS011;40363;52.270;10.546;2022-10-16T08:32:59;2.45;;;1.45;;
54452;SDS011;40363;52.270;10.546;2022-10-16T08:35:25;7.18;;;1.60;;
54452;SDS011;40363;52.270;10.546;2022-10-16T08:37:52;3.05;;;1.42;;
54452;SDS011;40363;52.270;10.546;2022-10-16T08:40:19;1.20;;;0.90;;
54452;SDS011;40363;52.270;10.546;2022-10-16T08:42:54;1.58;;;1.00;;
54452;SDS011;40363;52.270;10.546;2022-10-16T08:45:35;1.58;;;0.90;;
54452;SDS011;40363;52.270;10.546;2022-10-16T08:48:11;2.90;;;1.40;;
54452;SDS011;40363;52.270;10.546;2022-10-16T08:50:44;2.88;;;1.10;;
54452;SDS011;40363;52.270;10.546;2022-10-16T08:53:15;1.13;;;0.90;;
54452;SDS011;40363;52.270;10.546;2022-10-16T08:55:49;1.50;;;0.70;;
54452;SDS011;40363;52.270;10.546;2022-10-16T08:58:17;3.58;;;0.90;;
54452;SDS011;40363;52.270;10.546;2022-10-16T09:00:47;1.42;;;0.95;;
54452;SDS011;40363;52.270;10.546;2022-10-16T09:03:25;1.30;;;0.75;;
54452;SDS011;40363;52.270;10.546;2022-10-16T09:06:08;2.28;;;0.82;;
54452;SDS011;40363;52.270;10.546;2022-10-16T09:08:46;3.53;;;0.73;;
54452;SDS011;40363;52.270;10.546;2022-10-16T09:11:22;1.00;;;0.75;;
54452;SDS011;40363;52.270;10.546;2022-10-16T09:14:06;0.98;;;0.65;;
54452;SDS011;40363;52.270;10.546;2022-10-16T09:16:48;1.20;;;0.80;;
54452;SDS011;40363;52.270;10.546;2022-10-16T09:19:22;0.70;;;0.70;;
54452;SDS011;40363;52.270;10.546;2022-10-16T09:21:53;0.95;;;0.65;;
54452;SDS011;40363;52.270;10.546;2022-10-16T09:24:23;3.28;;;0.80;;
54452;SDS011;40363;52.270;10.546;2022-10-16T09:26:51;0.70;;;0.60;;
54452;SDS011;40363;52.270;10.546;2022-10-16T09:29:20;0.63;;;0.60;;
54452;SDS011;40363;52.270;10.546;2022-10-16T09:31:51;0.68;;;0.50;;
54452;SDS011;40363;52.270;10.546;2022-10-16T09:34:21;0.63;;;0.60;;
54452;SDS011;40363;52.270;10.546;2022-10-16T09:36:55;1.30;;;0.68;;
54452;SDS011;40363;52.270;10.546;2022-10-16T09:39:24;0.57;;;0.57;;
54452;SDS011;40363;52.270;10.546;2022-10-16T09:41:51;1.48;;;0.60;;
54452;SDS011;40363;52.270;10.546;2022-10-16T09:44:19;2.28;;;0.70;;
54452;SDS011;40363;52.270;10.546;2022-10-16T09:47:01;3.03;;;0.65;;
54452;SDS011;40363;52.270;10.546;2022-10-16T09:49:28;1.50;;;0.60;;
54452;SDS011;40363;52.270;10.546;2022-10-16T09:52:02;13.38;;;1.00;;
54452;SDS011;40363;52.270;10.546;2022-10-16T09:54:30;0.73;;;0.70;;
54452;SDS011;40363;52.270;10.546;2022-10-16T09:57:03;4.03;;;0.70;;
54452;SDS011;40363;52.270;10.546;2022-10-16T09:59:31;1.67;;;0.82;;
54452;SDS011;40363;52.270;10.546;2022-10-16T10:02:03;0.80;;;0.73;;
54452;SDS011;40363;52.270;10.546;2022-10-16T10:04:37;0.85;;;0.80;;
54452;SDS011;40363;52.270;10.546;2022-10-16T10:07:07;1.23;;;0.70;;
54452;SDS011;40363;52.270;10.546;2022-10-16T10:09:44;2.00;;;0.73;;
54452;SDS011;40363;52.270;10.546;2022-10-16T10:12:19;1.15;;;0.70;;
54452;SDS011;40363;52.270;10.546;2022-10-16T10:17:17;0.98;;;0.70;;
54452;SDS011;40363;52.270;10.546;2022-10-16T10:19:49;0.60;;;0.60;;
54452;SDS011;40363;52.270;10.546;2022-10-16T10:22:19;0.70;;;0.60;;
54452;SDS011;40363;52.270;10.546;2022-10-16T10:24:56;1.40;;;0.60;;
54452;SDS011;40363;52.270;10.546;2022-10-16T10:27:28;2.05;;;0.85;;
54452;SDS011;40363;52.270;10.546;2022-10-16T10:30:04;1.20;;;0.75;;
54452;SDS011;40363;52.270;10.546;2022-10-16T10:32:44;2.33;;;0.50;;
54452;SDS011;40363;52.270;10.546;2022-10-16T10:35:18;1.10;;;0.30;;
54452;SDS011;40363;52.270;10.546;2022-10-16T10:37:56;4.57;;;0.82;;
54452;SDS011;40363;52.270;10.546;2022-10-16T10:40:34;0.77;;;0.50;;
54452;SDS011;40363;52.270;10.546;2022-10-16T10:43:13;0.98;;;0.40;;
54452;SDS011;40363;52.270;10.546;2022-10-16T10:45:51;0.55;;;0.40;;
54452;SDS011;40363;52.270;10.546;2022-10-16T10:48:31;0.98;;;0.52;;
54452;SDS011;40363;52.270;10.546;2022-10-16T10:51:13;8.80;;;2.08;;
54452;SDS011;40363;52.270;10.546;2022-10-16T10:53:48;2.58;;;0.60;;
54452;SDS011;40363;52.270;10.546;2022-10-16T10:56:28;0.30;;;0.30;;
54452;SDS011;40363;52.270;10.546;2022-10-16T10:59:11;1.13;;;0.65;;
54452;SDS011;40363;52.270;10.546;2022-10-16T11:01:54;2.40;;;0.60;;
54452;SDS011;40363;52.270;10.546;2022-10-16T11:04:47;1.25;;;0.40;;
54452;SDS011;40363;52.270;10.546;2022-10-16T11:07:25;1.75;;;0.50;;
54452;SDS011;40363;52.270;10.546;2022-10-16T11:09:56;1.55;;;0.60;;
54452;SDS011;40363;52.270;10.546;2022-10-16T11:12:29;1.38;;;0.52;;
54452;SDS011;40363;52.270;10.546;2022-10-16T11:15:02;1.70;;;0.85;;
54452;SDS011;40363;52.270;10.546;2022-10-16T11:17:35;1.27;;;0.40;;
54452;SDS011;40363;52.270;10.546;2022-10-16T11:20:11;1.50;;;0.60;;
54452;SDS011;40363;52.270;10.546;2022-10-16T11:22:41;1.48;;;0.38;;
54452;SDS011;40363;52.270;10.546;2022-10-16T11:25:13;3.55;;;0.60;;
54452;SDS011;40363;52.270;10.546;2022-10-16T11:27:45;1.55;;;0.55;;
54452;SDS011;40363;52.270;10.546;2022-10-16T11:30:16;2.60;;;0.30;;
54452;SDS011;40363;52.270;10.546;2022-10-16T11:32:50;1.52;;;0.80;;
54452;SDS011;40363;52.270;10.546;2022-10-16T11:35:25;0.75;;;0.40;;
54452;SDS011;40363;52.270;10.546;2022-10-16T11:38:03;1.40;;;0.40;;
54452;SDS011;40363;52.270;10.546;2022-10-16T11:40:39;0.77;;;0.40;;
54452;SDS011;40363;52.270;10.546;2022-10-16T11:43:10;1.15;;;0.38;;
54452;SDS011;40363;52.270;10.546;2022-10-16T11:45:42;1.15;;;0.43;;
54452;SDS011;40363;52.270;10.546;2022-10-16T11:48:15;1.45;;;0.50;;
54452;SDS011;40363;52.270;10.546;2022-10-16T11:50:52;0.68;;;0.40;;
54452;SDS011;40363;52.270;10.546;2022-10-16T11:53:21;2.63;;;0.82;;
54452;SDS011;40363;52.270;10.546;2022-10-16T11:56:05;0.82;;;0.40;;
54452;SDS011;40363;52.270;10.546;2022-10-16T11:58:34;2.65;;;0.50;;
54452;SDS011;40363;52.270;10.546;2022-10-16T12:01:10;3.40;;;0.52;;
54452;SDS011;40363;52.270;10.546;2022-10-16T12:03:45;2.42;;;0.60;;
54452;SDS011;40363;52.270;10.546;2022-10-16T12:06:27;1.65;;;0.57;;
54452;SDS011;40363;52.270;10.546;2022-10-16T12:09:00;3.28;;;0.52;;
54452;SDS011;40363;52.270;10.546;2022-10-16T12:11:31;2.15;;;0.43;;
54452;SDS011;40363;52.270;10.546;2022-10-16T12:14:06;1.08;;;0.40;;
54452;SDS011;40363;52.270;10.546;2022-10-16T12:16:51;0.68;;;0.50;;
54452;SDS011;40363;52.270;10.546;2022-10-16T12:19:19;0.80;;;0.40;;
54452;SDS011;40363;52.270;10.546;2022-10-16T12:21:49;0.77;;;0.40;;
54452;SDS011;40363;52.270;10.546;2022-10-16T12:24:31;1.17;;;0.47;;
54452;SDS011;40363;52.270;10.546;2022-10-16T12:27:00;0.90;;;0.47;;
54452;SDS011;40363;52.270;10.546;2022-10-16T12:29:32;1.77;;;0.40;;
54452;SDS011;40363;52.270;10.546;2022-10-16T12:32:02;0.70;;;0.40;;
54452;SDS011;40363;52.270;10.546;2022-10-16T12:34:32;0.63;;;0.50;;
54452;SDS011;40363;52.270;10.546;2022-10-16T12:39:37;5.13;;;1.02;;
54452;SDS011;40363;52.270;10.546;2022-10-16T12:42:05;1.38;;;0.40;;
54452;SDS011;40363;52.270;10.546;2022-10-16T12:44:46;0.57;;;0.32;;
54452;SDS011;40363;52.270;10.546;2022-10-16T12:47:18;0.52;;;0.40;;
54452;SDS011;40363;52.270;10.546;2022-10-16T12:49:48;2.13;;;0.50;;
54452;SDS011;40363;52.270;10.546;2022-10-16T12:52:28;2.90;;;0.50;;
54452;SDS011;40363;52.270;10.546;2022-10-16T12:55:02;0.68;;;0.50;;
54452;SDS011;40363;52.270;10.546;2022-10-16T12:57:34;2.75;;;0.60;;
54452;SDS011;40363;52.270;10.546;2022-10-16T13:00:11;0.80;;;0.50;;
54452;SDS011;40363;52.270;10.546;2022-10-16T13:02:54;2.67;;;0.55;;
54452;SDS011;40363;52.270;10.546;2022-10-16T13:05:35;1.23;;;0.40;;
54452;SDS011;40363;52.270;10.546;2022-10-16T13:08:21;0.85;;;0.38;;
54452;SDS011;40363;52.270;10.546;2022-10-16T13:11:02;0.75;;;0.43;;
54452;SDS011;40363;52.270;10.546;2022-10-16T13:13:38;3.25;;;0.65;;
54452;SDS011;40363;52.270;10.546;2022-10-16T13:16:21;1.40;;;0.47;;
54452;SDS011;40363;52.270;10.546;2022-10-16T13:18:59;2.17;;;0.40;;
54452;SDS011;40363;52.270;10.546;2022-10-16T13:21:39;4.78;;;0.60;;
54452;SDS011;40363;52.270;10.546;2022-10-16T13:24:25;3.13;;;0.52;;
54452;SDS011;40363;52.270;10.546;2022-10-16T13:27:09;1.85;;;0.65;;
54452;SDS011;40363;52.270;10.546;2022-10-16T13:29:44;1.70;;;0.40;;
54452;SDS011;40363;52.270;10.546;2022-10-16T13:32:18;3.83;;;0.43;;
54452;SDS011;40363;52.270;10.546;2022-10-16T13:34:47;1.85;;;0.40;;
54452;SDS011;40363;52.270;10.546;2022-10-16T13:37:18;3.60;;;2.03;;
54452;SDS011;40363;52.270;10.546;2022-10-16T13:39:47;1.38;;;0.45;;
54452;SDS011;40363;52.270;10.546;2022-10-16T13:42:18;2.08;;;0.57;;
54452;SDS011;40363;52.270;10.546;2022-10-16T13:44:49;0.77;;;0.50;;
54452;SDS011;40363;52.270;10.546;2022-10-16T13:47:18;1.60;;;0.70;;
54452;SDS011;40363;52.270;10.546;2022-10-16T13:49:58;0.88;;;0.50;;
54452;SDS011;40363;52.270;10.546;2022-10-16T13:52:25;1.95;;;0.80;;
54452;SDS011;40363;52.270;10.546;2022-10-16T13:54:54;3.13;;;0.98;;
54452;SDS011;40363;52.270;10.546;2022-10-16T13:57:21;9.88;;;3.13;;
54452;SDS011;40363;52.270;10.546;2022-10-16T13:59:49;2.10;;;0.88;;
54452;SDS011;40363;52.270;10.546;2022-10-16T14:02:18;3.20;;;0.80;;
54452;SDS011;40363;52.270;10.546;2022-10-16T14:04:48;2.42;;;1.00;;
54452;SDS011;40363;52.270;10.546;2022-10-16T14:07:18;1.60;;;0.80;;
54452;SDS011;40363;52.270;10.546;2022-10-16T14:09:49;4.15;;;1.02;;
54452;SDS011;40363;52.270;10.546;2022-10-16T14:12:18;3.03;;;0.60;;
54452;SDS011;40363;52.270;10.546;2022-10-16T14:14:46;4.13;;;0.88;;
54452;SDS011;40363;52.270;10.546;2022-10-16T14:17:14;3.45;;;0.88;;
54452;SDS011;40363;52.270;10.546;2022-10-16T14:19:45;1.38;;;0.65;;
54452;SDS011;40363;52.270;10.546;2022-10-16T14:22:21;2.13;;;0.70;;
54452;SDS011;40363;52.270;10.546;2022-10-16T14:24:54;1.35;;;0.45;;
54452;SDS011;40363;52.270;10.546;2022-10-16T14:27:24;1.70;;;0.52;;
54452;SDS011;40363;52.270;10.546;2022-10-16T14:32:52;3.17;;;1.10;;
54452;SDS011;40363;52.270;10.546;2022-10-16T14:35:24;2.63;;;0.63;;
54452;SDS011;40363;52.270;10.546;2022-10-16T14:37:53;1.33;;;0.52;;
54452;SDS011;40363;52.270;10.546;2022-10-16T14:40:23;2.65;;;0.57;;
54452;SDS011;40363;52.270;10.546;2022-10-16T14:42:52;1.10;;;0.57;;
54452;SDS011;40363;52.270;10.546;2022-10-16T14:45:20;1.60;;;0.85;;
54452;SDS011;40363;52.270;10.546;2022-10-16T14:47:50;3.92;;;1.13;;
54452;SDS011;40363;52.270;10.546;2022-10-16T14:50:20;1.60;;;0.60;;
54452;SDS011;40363;52.270;10.546;2022-10-16T14:52:46;1.85;;;0.90;;
54452;SDS011;40363;52.270;10.546;2022-10-16T14:55:13;2.63;;;0.68;;
54452;SDS011;40363;52.270;10.546;2022-10-16T14:57:41;1.20;;;0.82;;
54452;SDS011;40363;52.270;10.546;2022-10-16T15:00:13;2.70;;;1.23;;